• Join FlightAware (Why Join?)
  • Login
  • US Flag 
10:27PM EDT


 

Airport Tracker/Info


-or-


 

Live Flight TrackerFlight Track Log ✈ FDX1471 ✈ 25-May-2013 ✈ KMEM - KDFW

Flight Track Log - Related Links

Times and Time Zones

All times are in EDT time to prevent confusion due to time zone crossing. See the FDX1471 flight status page for this flight to view local times or setup timezone preferences in your user account.

Time Position Orientation Groundspeed Altitude Reporting Facility
EDT Latitude Longitude Course Direction KTS MPH feet Rate Location/Type
05:31AM 35.0167 -89.9833 202° Southwest 185 213 1,300  Level KMEM
05:32AM 34.9500 -90.0167 202° Southwest 261 300 4,700 3,420 Climbing KMEM
05:33AM 34.9333 -90.1000 256° West 290 334 8,600 2,760 Climbing KMEM
05:34AM 34.9383 -90.2075 273° West 320 368 10,400 2,220 Climbing Memphis Center
05:35AM 34.9261 -90.3419 264° West 375 432 13,500 3,000 Climbing Memphis Center
05:36AM 34.9175 -90.4811 266° West 409 471 16,500 2,700 Climbing Memphis Center
05:37AM 34.9069 -90.6306 265° West 439 505 19,000 2,460 Climbing Memphis Center
05:38AM 34.8939 -90.7825 264° West 456 525 21,500 2,580 Climbing Memphis Center
05:43AM 34.7670 -91.6100 264° West 427 491 35,600 2,280 Climbing FlightAware
05:44AM 34.7490 -91.7230 259° West 428 493 36,000 180 Climbing FlightAware
05:45AM 34.7290 -91.8480 259° West 428 493 36,000  Level FlightAware
05:46AM 34.7140 -91.9450 259° West 428 493 36,000  Level FlightAware
05:47AM 34.6950 -92.0650 259° West 428 493 36,000  Level FlightAware
05:48AM 34.6830 -92.1370 259° West 428 493 36,000  Level FlightAware
05:49AM 34.6680 -92.2340 259° West 428 493 36,000  Level FlightAware
05:49AM 34.6560 -92.3060 259° West 428 493 36,000  Level FlightAware
05:50AM 34.6380 -92.4190 259° West 428 493 36,000  Level FlightAware
05:51AM 34.6230 -92.5150 259° West 428 493 36,000  Level FlightAware
05:52AM 34.6100 -92.5910 258° West 428 493 36,000  Level FlightAware
05:52AM 34.5990 -92.6660 260° West 428 493 36,000  Level FlightAware
05:53AM 34.5830 -92.7640 259° West 428 493 36,000  Level FlightAware
05:54AM 34.5710 -92.8360 259° West 428 493 36,000  Level FlightAware
05:54AM 34.4328 -93.0969 259° West 442 509 36,000  Level Memphis Center
05:55AM 34.3964 -93.2367 253° West 442 509 36,000  Level Memphis Center
05:56AM 34.3575 -93.3761 251° West 437 503 36,000 -120 Level Memphis Center
05:57AM 34.3331 -93.4828 255° West 443 510 35,900 -120 Descending Fort Worth Center
05:58AM 34.2933 -93.6203 251° West 443 510 35,900  Level Fort Worth Center
06:03AM 34.0030 -94.3550 251° West 444 511 36,000  Climbing FlightAware
06:04AM 33.9700 -94.4450 246° West 443 510 36,000  Level FlightAware
06:05AM 33.9350 -94.5500 248° West 442 509 36,000 -300 Level FlightAware
06:05AM 33.8920 -94.6730 247° West 442 509 35,600 -600 Descending FlightAware
06:06AM 33.8560 -94.7760 247° West 448 516 35,100 -780 Descending FlightAware
06:07AM 33.8394 -94.8243 248° West 449 517 34,800 -840 Descending FlightAware ADS-B
06:08AM 33.7926 -94.9578 247° West 450 518 34,000 -1,080 Descending FlightAware ADS-B
06:08AM 33.7560 -95.0619 247° West 454 522 33,000 -1,920 Descending FlightAware ADS-B
06:09AM 33.7230 -95.1560 247° West 464 534 31,300 -2,640 Descending FlightAware
06:09AM 33.7075 -95.1987 246° West 460 529 30,500 -2,460 Descending FlightAware ADS-B
06:10AM 33.6510 -95.3560 247° West 455 524 27,800 -2,340 Descending FlightAware
06:11AM 33.6180 -95.4500 247° West 442 509 26,300 -2,280 Descending FlightAware
06:12AM 33.5820 -95.5500 247° West 430 495 24,600 -2,280 Descending FlightAware
06:12AM 33.5500 -95.6390 247° West 419 482 23,100 -2,280 Descending FlightAware
06:13AM 33.5180 -95.7280 247° West 415 478 21,500 -2,340 Descending FlightAware
06:14AM 33.4860 -95.8170 247° West 427 491 19,900 -2,460 Descending FlightAware
06:15AM 33.4520 -95.9090 246° West 433 498 18,100 -2,460 Descending FlightAware
06:15AM 33.4200 -95.9990 247° West 421 484 16,500 -2,400 Descending FlightAware
06:16AM 33.3890 -96.0850 247° West 408 470 14,900 -2,340 Descending FlightAware
06:17AM 33.3580 -96.1710 247° West 394 453 13,300 -2,220 Descending FlightAware
06:17AM 33.3270 -96.2540 246° West 371 427 11,800 -1,560 Descending FlightAware
06:18AM 33.3000 -96.3280 246° West 323 372 11,100 -840 Descending FlightAware
06:19AM 33.2770 -96.3890 246° West 275 316 10,700 -600 Descending FlightAware
06:20AM 33.2550 -96.4530 248° West 276 318 10,300 -480 Descending FlightAware
06:20AM 33.2350 -96.5090 247° West 274 315 10,100 -660 Descending FlightAware
06:20AM 33.2260 -96.5310 244° Southwest 277 319 9,700 -1,320 Descending FlightAware
06:21AM 33.2130 -96.5670 247° West 271 312 9,200 -1,140 Descending FlightAware
06:21AM 33.1980 -96.6050 245° Southwest 269 310 8,700 -1,260 Descending FlightAware
06:22AM 33.1850 -96.6420 247° West 268 308 8,000 -1,440 Descending FlightAware
06:22AM 33.1700 -96.6820 246° West 273 314 7,400 -1,320 Descending FlightAware
06:23AM 33.1560 -96.7200 246° West 266 306 6,800 -1,200 Descending FlightAware
06:23AM 33.1420 -96.7590 247° West 261 300 6,300 -1,080 Descending FlightAware
06:23AM 33.1370 -96.7740 248° West 259 298 6,100 -1,200 Descending FlightAware
06:24AM 33.1230 -96.8110 246° West 251 289 5,500 -1,380 Descending FlightAware
06:24AM 33.1100 -96.8490 248° West 253 291 4,800 -1,200 Descending FlightAware
06:25AM 33.0990 -96.8770 245° Southwest 242 278 4,500 -300 Descending FlightAware
06:26AM 33.0940 -96.8880 242° Southwest 236 272 4,400 -780 Descending FlightAware
06:26AM 33.0600 -96.9780 246° West 218 251 3,400 -1,500 Descending FlightAware
06:27AM 33.0490 -97.0080 246° West 199 229 3,000 -840 Descending FlightAware
06:27AM 33.0390 -97.0200 225° Southwest 185 213 2,800 -720 Descending FlightAware
06:27AM 33.0300 -97.0240 200° South 174 200 2,700 -1,080 Descending FlightAware
06:28AM 33.0090 -97.0250 182° South 159 183 2,100 -1,020 Descending FlightAware
06:28AM 32.9910 -97.0260 183° South 145 167 1,800 -660 Descending FlightAware
06:28AM 32.9840 -97.0260 180° South 146 168 1,700 -720 Descending FlightAware
06:29AM 32.9600 -97.0260 180° South 149 171 1,300 -540 Descending FlightAware
06:29AM 32.9430 -97.0260 180° South 147 169 1,200 -600 Descending FlightAware
06:30AM 32.9267 -97.0272 180° South 147 169 800 -1,080 Descending Fort Worth Center
06:32AM 32.8968 -97.0380 192° South  Level Estimated